createdAt,value
2018-04-20T00:00:39.660Z,2.90
2018-04-20T00:04:42.194Z,2.63
2018-04-20T00:08:45.534Z,2.97
2018-04-20T00:12:48.066Z,2.63
2018-04-20T00:16:50.658Z,2.93
2018-04-20T00:20:53.198Z,2.93
2018-04-20T00:24:55.780Z,3.30
2018-04-20T00:28:58.308Z,3.03
2018-04-20T00:33:01.956Z,3.23
2018-04-20T00:37:04.505Z,3.20
2018-04-20T00:41:07.152Z,2.80
2018-04-20T00:45:09.723Z,3.33
2018-04-20T00:49:14.076Z,2.73
2018-04-20T00:53:16.723Z,3.10
2018-04-20T00:57:19.273Z,2.87
2018-04-20T01:01:21.818Z,2.90
2018-04-20T01:05:24.395Z,3.13
2018-04-20T01:09:27.771Z,2.77
2018-04-20T01:13:30.418Z,3.37
2018-04-20T01:17:32.985Z,3.20
2018-04-20T01:21:35.816Z,3.00
2018-04-20T01:25:38.341Z,3.33
2018-04-20T01:29:40.906Z,2.90
2018-04-20T01:33:43.446Z,2.93
2018-04-20T01:37:46.303Z,3.30
2018-04-20T01:41:49.865Z,3.30
2018-04-20T01:45:52.408Z,3.30
2018-04-20T01:49:54.961Z,3.40
2018-04-20T01:53:57.834Z,3.07
2018-04-20T01:58:00.375Z,3.47
2018-04-20T02:02:02.952Z,3.20
2018-04-20T02:06:05.639Z,2.83
2018-04-20T02:10:08.293Z,2.90
2018-04-20T02:14:14.792Z,2.97
2018-04-20T02:18:17.367Z,2.63
2018-04-20T02:22:19.875Z,3.03
2018-04-20T02:26:22.445Z,2.60
2018-04-20T02:30:25.735Z,2.87
2018-04-20T02:34:28.597Z,2.97
2018-04-20T02:38:31.132Z,4.00
2018-04-20T02:42:33.706Z,2.80
2018-04-20T02:46:36.248Z,3.20
2018-04-20T02:50:46.303Z,2.93
2018-04-20T02:54:48.838Z,3.10
2018-04-20T02:58:51.413Z,3.20
2018-04-20T03:02:54.885Z,3.60
2018-04-20T03:06:57.453Z,3.03
2018-04-20T03:10:59.988Z,3.90
2018-04-20T03:15:02.573Z,3.57
2018-04-20T03:19:05.121Z,3.73
2018-04-20T03:23:07.688Z,3.47
2018-04-20T03:27:10.231Z,3.40
2018-04-20T03:31:12.888Z,3.10
2018-04-20T03:35:15.433Z,3.67
2018-04-20T03:39:18.004Z,2.90
2018-04-20T03:43:21.493Z,3.27
2018-04-20T03:47:24.906Z,3.30
2018-04-20T03:51:31.492Z,3.07
2018-04-20T03:55:34.152Z,3.30
2018-04-20T03:59:36.695Z,3.70
2018-04-20T04:03:39.264Z,3.10
2018-04-20T04:07:41.809Z,3.47
2018-04-20T04:11:44.745Z,3.27
2018-04-20T04:15:47.262Z,3.57
2018-04-20T04:20:12.575Z,3.43
2018-04-20T04:24:26.806Z,3.40
2018-04-20T04:28:29.479Z,2.90
2018-04-20T04:32:32.030Z,3.27
2018-04-20T04:36:34.604Z,3.37
2018-04-20T04:40:39.854Z,2.83
2018-04-20T04:44:42.427Z,3.60
2018-04-20T04:48:44.964Z,3.23
2018-04-20T04:52:47.821Z,3.30
2018-04-20T04:56:50.392Z,3.43
2018-04-20T05:00:53.078Z,3.50
2018-04-20T05:04:55.627Z,3.80
2018-04-20T05:08:58.943Z,3.17
2018-04-20T05:13:01.512Z,3.67
2018-04-20T05:17:04.063Z,3.63
2018-04-20T05:21:07.343Z,3.50
2018-04-20T05:25:11.811Z,3.73
2018-04-20T05:29:14.331Z,3.77
2018-04-20T05:33:16.879Z,3.80
2018-04-20T05:37:19.386Z,3.83
2018-04-20T05:41:21.935Z,4.03
2018-04-20T05:45:24.446Z,4.57
2018-04-20T05:49:27.715Z,4.13
2018-04-20T05:53:30.246Z,4.30
2018-04-20T05:57:43.900Z,4.57
2018-04-20T06:02:00.126Z,4.50
2018-04-20T06:06:02.967Z,4.50
2018-04-20T06:10:05.479Z,4.73
2018-04-20T06:14:08.019Z,3.90
2018-04-20T06:18:12.504Z,4.80
2018-04-20T06:22:15.053Z,4.93
2018-04-20T06:26:18.530Z,5.47
2018-04-20T06:30:21.071Z,4.77
2018-04-20T06:34:23.588Z,5.10
2018-04-20T06:38:26.219Z,5.00
2018-04-20T06:42:28.743Z,4.83
2018-04-20T06:46:31.278Z,5.37
2018-04-20T06:50:35.711Z,5.93
2018-04-20T06:54:38.346Z,6.10
2018-04-20T06:58:40.970Z,5.20
2018-04-20T07:02:43.511Z,6.07
2018-04-20T07:06:46.023Z,6.03
2018-04-20T07:10:48.565Z,5.57
2018-04-20T07:14:54.434Z,4.40
2018-04-20T07:18:57.369Z,5.50
2018-04-20T07:22:59.882Z,5.20
2018-04-20T07:27:02.527Z,6.17
2018-04-20T07:31:05.143Z,7.10
2018-04-20T07:35:07.688Z,7.50
2018-04-20T07:39:10.211Z,5.07
2018-04-20T07:43:12.759Z,5.22
2018-04-20T07:47:15.275Z,5.28
2018-04-20T07:51:17.842Z,4.60
2018-04-20T07:55:21.148Z,4.72
2018-04-20T07:59:23.703Z,4.45
2018-04-20T08:03:26.218Z,4.62
2018-04-20T08:07:28.762Z,4.40
2018-04-20T08:11:31.279Z,6.20
2018-04-20T08:15:33.824Z,5.78
2018-04-20T08:19:36.342Z,6.70
2018-04-20T08:23:39.183Z,4.70
2018-04-20T08:27:41.746Z,4.22
2018-04-20T08:31:44.384Z,5.18
2018-04-20T08:35:46.895Z,4.37
2018-04-20T08:39:49.660Z,4.18
2018-04-20T08:43:52.177Z,4.15
2018-04-20T08:47:54.709Z,3.85
2018-04-20T08:51:57.224Z,4.15
2018-04-20T08:56:00.147Z,4.10
2018-04-20T09:00:02.662Z,3.97
2018-04-20T09:04:05.223Z,3.92
2018-04-20T09:08:07.743Z,4.05
2018-04-20T09:12:10.283Z,3.95
2018-04-20T09:16:13.564Z,3.55
2018-04-20T09:20:16.100Z,4.03
2018-04-20T09:24:18.611Z,3.78
2018-04-20T09:28:21.438Z,3.83
2018-04-20T09:32:24.719Z,4.00
2018-04-20T09:36:27.355Z,3.90
2018-04-20T09:40:30.632Z,3.33
2018-04-20T09:44:33.176Z,3.53
2018-04-20T09:48:37.691Z,3.53
2018-04-20T09:52:41.251Z,3.58
2018-04-20T09:56:43.779Z,3.47
2018-04-20T10:00:48.176Z,3.90
2018-04-20T10:04:50.694Z,3.23
2018-04-20T10:08:53.330Z,3.43
2018-04-20T10:12:55.876Z,3.33
2018-04-20T10:16:58.406Z,3.00
2018-04-20T10:21:00.918Z,3.27
2018-04-20T10:25:03.566Z,3.10
2018-04-20T10:29:06.847Z,3.40
2018-04-20T10:33:09.477Z,3.07
2018-04-20T10:37:11.995Z,3.27
2018-04-20T10:41:15.302Z,3.53
2018-04-20T10:45:17.810Z,3.53
2018-04-20T10:49:21.327Z,3.10
2018-04-20T10:53:23.835Z,3.57
2018-04-20T10:57:26.371Z,3.30
2018-04-20T11:01:29.744Z,3.27
2018-04-20T11:05:32.377Z,3.23
2018-04-20T11:09:35.886Z,3.43
2018-04-20T11:13:38.438Z,3.70
2018-04-20T11:17:40.996Z,2.80
2018-04-20T11:21:46.543Z,2.90
2018-04-20T11:25:49.055Z,3.07
2018-04-20T11:29:51.691Z,3.20
2018-04-20T11:33:54.205Z,3.40
2018-04-20T11:37:57.020Z,2.80
2018-04-20T11:41:59.542Z,3.40
2018-04-20T11:46:02.087Z,3.40
2018-04-20T11:50:04.603Z,2.80
2018-04-20T11:54:07.448Z,2.70
2018-04-20T11:58:09.958Z,2.70
2018-04-20T12:02:12.531Z,2.83
2018-04-20T12:06:15.044Z,2.87
2018-04-20T12:10:17.869Z,3.10
2018-04-20T12:14:20.396Z,3.00
2018-04-20T12:18:22.970Z,2.40
2018-04-20T12:22:25.483Z,2.60
2018-04-20T12:26:28.035Z,4.00
2018-04-20T12:30:32.547Z,2.80
2018-04-20T12:34:35.107Z,3.33
2018-04-20T12:38:37.636Z,2.90
2018-04-20T12:42:43.745Z,3.10
2018-04-20T12:46:46.282Z,2.43
2018-04-20T12:50:49.643Z,3.07
2018-04-20T12:54:52.186Z,2.90
2018-04-20T12:58:54.765Z,2.70
2018-04-20T13:02:57.307Z,2.87
2018-04-20T13:07:01.027Z,3.10
2018-04-20T13:11:05.571Z,2.60
2018-04-20T13:15:08.145Z,2.90
2018-04-20T13:19:10.674Z,2.50
2018-04-20T13:23:13.229Z,9.37
2018-04-20T13:27:16.531Z,2.90
2018-04-20T13:31:19.157Z,3.97
2018-04-20T13:35:21.648Z,3.17
2018-04-20T13:39:24.213Z,2.77
2018-04-20T13:43:26.838Z,2.60
2018-04-20T13:47:31.344Z,2.53
2018-04-20T13:51:33.949Z,2.47
2018-04-20T13:55:40.449Z,3.13
2018-04-20T13:59:49.857Z,2.63
2018-04-20T14:03:52.498Z,3.00
2018-04-20T14:07:55.059Z,3.00
2018-04-20T14:11:57.626Z,3.00
2018-04-20T14:16:00.921Z,2.77
2018-04-20T14:20:03.500Z,2.73
2018-04-20T14:24:06.052Z,2.70
2018-04-20T14:28:09.379Z,3.00
2018-04-20T14:32:12.692Z,2.70
2018-04-20T14:36:15.679Z,2.67
2018-04-20T14:40:18.194Z,2.60
2018-04-20T14:44:22.066Z,2.90
2018-04-20T14:48:25.450Z,2.67
2018-04-20T14:52:32.702Z,3.00
2018-04-20T14:56:39.887Z,3.10
2018-04-20T15:00:42.540Z,3.17
2018-04-20T15:04:47.174Z,3.00
2018-04-20T15:08:50.484Z,2.80
2018-04-20T15:12:54.995Z,3.77
2018-04-20T15:16:58.606Z,3.40
2018-04-20T15:21:01.342Z,3.20
2018-04-20T15:25:04.886Z,2.90
2018-04-20T15:29:07.404Z,2.67
2018-04-20T15:33:10.048Z,3.23
2018-04-20T15:37:13.510Z,2.80
2018-04-20T15:41:16.148Z,2.97
2018-04-20T15:45:18.663Z,2.50
2018-04-20T15:49:23.250Z,3.00
2018-04-20T15:53:25.836Z,2.70
2018-04-20T15:57:31.090Z,3.03
2018-04-20T16:01:33.608Z,2.60
2018-04-20T16:05:36.943Z,2.77
2018-04-20T16:09:40.235Z,3.30
2018-04-20T16:13:42.785Z,2.90
2018-04-20T16:17:46.237Z,2.70
2018-04-20T16:21:49.464Z,2.83
2018-04-20T16:25:51.975Z,3.00
2018-04-20T16:29:54.537Z,2.90
2018-04-20T16:33:57.093Z,3.00
2018-04-20T16:37:59.740Z,3.00
2018-04-20T16:42:02.255Z,2.53
2018-04-20T16:46:04.824Z,3.07
2018-04-20T16:50:07.339Z,2.97
2018-04-20T16:54:10.048Z,2.90
2018-04-20T16:58:12.558Z,2.73
2018-04-20T17:02:15.975Z,2.23
2018-04-20T17:06:18.491Z,2.60
2018-04-20T17:10:23.734Z,2.70
2018-04-20T17:14:26.303Z,2.60
2018-04-20T17:18:28.843Z,2.90
2018-04-20T17:22:31.355Z,2.83
2018-04-20T17:26:33.898Z,3.00
2018-04-20T17:30:36.419Z,3.30
2018-04-20T17:34:53.654Z,3.17
2018-04-20T17:38:56.208Z,3.33
2018-04-20T17:42:58.861Z,3.70
2018-04-20T17:47:02.315Z,3.40
2018-04-20T17:51:04.894Z,3.33
2018-04-20T17:55:08.174Z,3.70
2018-04-20T17:59:10.711Z,3.50
2018-04-20T18:03:14.003Z,3.27
2018-04-20T18:07:16.626Z,3.20
2018-04-20T18:11:19.149Z,3.23
2018-04-20T18:15:22.545Z,3.10
2018-04-20T18:19:25.067Z,3.30
2018-04-20T18:23:27.937Z,3.50
2018-04-20T18:27:30.484Z,3.47
2018-04-20T18:31:33.251Z,3.73
2018-04-20T18:35:35.775Z,3.73
2018-04-20T18:39:41.465Z,4.20
2018-04-20T18:43:43.977Z,4.50
2018-04-20T18:47:57.563Z,4.83
2018-04-20T18:52:01.406Z,5.27
2018-04-20T18:56:04.994Z,4.00
2018-04-20T19:00:20.819Z,4.27
2018-04-20T19:04:23.382Z,5.20
2018-04-20T19:08:25.942Z,4.43
2018-04-20T19:12:28.514Z,5.13
2018-04-20T19:16:32.066Z,6.00
2018-04-20T19:20:34.651Z,5.23
2018-04-20T19:24:49.720Z,5.57
2018-04-20T19:28:53.198Z,5.47
2018-04-20T19:32:55.742Z,5.10
2018-04-20T19:36:58.311Z,4.97
2018-04-20T19:41:02.595Z,5.97
2018-04-20T19:45:09.237Z,5.23
2018-04-20T19:49:34.939Z,5.37
2018-04-20T19:53:38.607Z,5.07
2018-04-20T19:57:41.173Z,5.90
2018-04-20T20:01:46.440Z,6.00
2018-04-20T20:05:51.652Z,5.93
2018-04-20T20:10:00.949Z,5.53
2018-04-20T20:14:05.431Z,5.70
2018-04-20T20:18:08.863Z,6.20
2018-04-20T20:22:12.095Z,6.37
2018-04-20T20:26:16.688Z,6.37
2018-04-20T20:30:19.210Z,6.57
2018-04-20T20:34:21.779Z,6.73
2018-04-20T20:38:24.299Z,6.60
2018-04-20T20:42:27.253Z,7.33
2018-04-20T20:46:30.540Z,6.70
2018-04-20T20:50:33.150Z,7.60
2018-04-20T20:54:35.666Z,7.50
2018-04-20T20:58:39.314Z,5.97
2018-04-20T21:02:42.612Z,5.60
2018-04-20T21:06:45.197Z,5.93
2018-04-20T21:10:47.712Z,5.50
2018-04-20T21:14:50.268Z,5.53
2018-04-20T21:18:53.554Z,7.87
2018-04-20T21:23:01.401Z,6.70
2018-04-20T21:27:04.017Z,5.30
2018-04-20T21:31:08.510Z,6.40
2018-04-20T21:35:17.751Z,8.33
2018-04-20T21:39:22.110Z,6.70
2018-04-20T21:43:24.699Z,6.47
2018-04-20T21:47:31.677Z,6.40
2018-04-20T21:51:34.253Z,6.33
2018-04-20T21:55:36.839Z,6.63
2018-04-20T21:59:40.358Z,8.60
2018-04-20T22:03:43.684Z,8.83
2018-04-20T22:07:46.991Z,7.30
2018-04-20T22:11:50.531Z,7.37
2018-04-20T22:15:57.687Z,7.00
2018-04-20T22:20:00.247Z,6.60
2018-04-20T22:24:03.532Z,6.97
2018-04-20T22:28:06.092Z,8.47
2018-04-20T22:32:10.574Z,9.03
2018-04-20T22:36:14.142Z,8.03
2018-04-20T22:40:17.627Z,7.87
2018-04-20T22:44:24.884Z,11.47
2018-04-20T22:48:33.779Z,8.80
2018-04-20T22:52:36.333Z,7.67
2018-04-20T22:56:38.855Z,8.60
2018-04-20T23:00:41.414Z,8.43
2018-04-20T23:04:45.870Z,8.27
2018-04-20T23:08:48.423Z,8.17
2018-04-20T23:13:05.671Z,10.37
2018-04-20T23:17:08.218Z,8.60
2018-04-20T23:21:10.760Z,8.70
2018-04-20T23:25:15.223Z,7.07
2018-04-20T23:29:17.750Z,7.07
2018-04-20T23:33:21.061Z,6.47
2018-04-20T23:37:23.567Z,7.13
2018-04-20T23:41:39.526Z,6.93
2018-04-20T23:45:42.046Z,6.70
2018-04-20T23:49:44.890Z,7.37
2018-04-20T23:53:47.502Z,7.20
2018-04-20T23:57:52.055Z,6.87
